Time;durP1;ratioP1;P1;durP2;ratioP2;P2;SDS_P1;SDS_P2;PMS_P1;PMS_P2;Temp;Humidity;BMP_temperature;BMP_pressure;BME280_temperature;BME280_humidity;BME280_pressure;Samples;Min_cycle;Max_cycle;Signal;HPM_P1;HPM_P2
2021/12/10 00:00:24;;;;;;;49.97;21.95;;;;;;;1.00;100.00;99804.13;5072124;28;20039;-81
2021/12/10 00:02:51;;;;;;;38.80;20.25;;;;;;;1.12;100.00;99812.66;5070053;28;20496;-80
2021/12/10 00:05:22;;;;;;;43.40;19.52;;;;;;;1.18;100.00;99806.69;5071700;28;20086;-81
2021/12/10 00:07:49;;;;;;;37.70;18.80;;;;;;;1.20;100.00;99788.69;5071709;28;20103;-81
2021/12/10 00:10:20;;;;;;;40.95;18.15;;;;;;;1.31;100.00;99792.09;5071711;28;20460;-81
2021/12/10 00:12:50;;;;;;;40.38;17.60;;;;;;;1.37;100.00;99785.22;5070312;28;20044;-80
2021/12/10 00:15:24;;;;;;;39.72;17.30;;;;;;;1.42;100.00;99774.94;5071007;28;20032;-80
2021/12/10 00:17:51;;;;;;;33.10;16.67;;;;;;;1.45;100.00;99768.94;5050970;28;20025;-81
2021/12/10 00:20:18;;;;;;;31.02;14.68;;;;;;;1.48;100.00;99764.63;5052909;28;20106;-80
2021/12/10 00:22:55;;;;;;;26.52;14.35;;;;;;;1.58;100.00;99766.31;5070962;28;20028;-80
2021/12/10 00:25:24;;;;;;;34.70;15.77;;;;;;;1.59;100.00;99754.31;5071233;28;20070;-80
2021/12/10 00:27:53;;;;;;;33.60;14.95;;;;;;;1.55;100.00;99743.19;5071535;28;20024;-80
2021/12/10 00:30:25;;;;;;;35.05;14.25;;;;;;;1.64;100.00;99734.59;5070870;28;20492;-81
2021/12/10 00:33:03;;;;;;;25.08;13.60;;;;;;;1.72;100.00;99725.13;5069845;28;20384;-81
2021/12/10 00:35:33;;;;;;;29.10;15.13;;;;;;;1.64;100.00;99724.34;5072023;28;20061;-81
2021/12/10 00:37:59;;;;;;;26.30;13.43;;;;;;;1.63;100.00;99725.16;5071405;28;20044;-81
2021/12/10 00:40:25;;;;;;;22.63;11.82;;;;;;;1.62;100.00;99710.63;5070767;28;20029;-80
2021/12/10 00:42:52;;;;;;;21.25;12.32;;;;;;;1.55;100.00;99702.09;5071538;28;20052;-80
2021/12/10 00:45:18;;;;;;;23.75;10.95;;;;;;;1.46;100.00;99693.59;5052826;28;20028;-80
2021/12/10 00:47:45;;;;;;;21.38;10.73;;;;;;;1.36;100.00;99692.78;5050471;28;20017;-80
2021/12/10 00:50:19;;;;;;;19.42;10.32;;;;;;;1.32;100.00;99684.22;5054562;28;20362;-81
2021/12/10 00:52:45;;;;;;;19.98;9.30;;;;;;;1.29;100.00;99675.69;5054783;28;20469;-80
2021/12/10 00:55:10;;;;;;;20.20;9.95;;;;;;;1.26;100.00;99681.69;5071196;28;20020;-81
2021/12/10 00:57:37;;;;;;;19.40;9.30;;;;;;;1.17;100.00;99667.16;5071232;28;20111;-81
2021/12/10 01:00:07;;;;;;;16.63;9.82;;;;;;;1.11;100.00;99659.50;5069831;28;20067;-80
2021/12/10 01:02:32;;;;;;;24.35;10.35;;;;;;;1.08;100.00;99656.97;5071179;28;20056;-81
2021/12/10 01:04:59;;;;;;;21.17;9.55;;;;;;;1.04;100.00;99644.13;5071090;28;20518;-81
2021/12/10 01:07:32;;;;;;;25.08;9.68;;;;;;;1.01;100.00;99644.97;5070948;28;20070;-81
2021/12/10 01:09:59;;;;;;;;;;;;;;;1.00;100.00;99638.16;5071631;28;20047;-81
2021/12/10 01:12:37;;;;;;;17.52;8.98;;;;;;;0.96;100.00;99633.06;5070378;28;19920;-81
2021/12/10 01:15:36;;;;;;;20.92;9.90;;;;;;;0.91;100.00;99620.22;5070687;28;20480;-81
2021/12/10 01:23:58;;;;;;;18.15;9.52;;;;;;;0.87;100.00;99586.03;5070319;28;20040;-81
2021/12/10 01:26:40;;;;;;;20.02;10.02;;;;;;;0.88;100.00;99586.88;5071627;28;20392;-81
2021/12/10 01:29:08;;;;;;;20.52;10.18;;;;;;;0.88;100.00;99580.06;5069578;28;20476;-81
2021/12/10 01:31:34;;;;;;;22.38;9.02;;;;;;;0.82;100.00;99566.41;5070681;28;20166;-81
2021/12/10 01:34:00;;;;;;;19.52;9.55;;;;;;;0.80;100.00;99547.56;5070997;28;20028;-81
2021/12/10 01:36:25;;;;;;;22.33;8.98;;;;;;;0.73;100.00;99543.34;5074321;28;20078;-81
2021/12/10 01:38:53;;;;;;;17.70;8.27;;;;;;;0.83;100.00;99556.13;5073525;28;20027;-81
2021/12/10 01:41:23;;;;;;;18.08;9.27;;;;;;;0.80;100.00;99552.72;5074047;28;20059;-81
2021/12/10 01:43:51;;;;;;;19.77;8.13;;;;;;;0.79;100.00;99541.59;5072946;28;20431;-81
2021/12/10 01:46:26;;;;;;;16.33;7.88;;;;;;;0.80;100.00;99545.84;5074733;28;20044;-81
2021/12/10 01:48:58;;;;;;;17.02;8.00;;;;;;;0.78;100.00;99541.59;5074459;28;20078;-81
2021/12/10 01:51:27;;;;;;;21.58;8.65;;;;;;;0.70;100.00;99537.34;5073530;28;20488;-81
2021/12/10 01:53:56;;;;;;;17.70;7.65;;;;;;;0.73;100.00;99530.50;5070449;28;20021;-80
2021/12/10 01:56:30;;;;;;;18.67;7.82;;;;;;;0.75;100.00;99533.91;5071611;28;20496;-80
2021/12/10 01:58:57;;;;;;;19.63;6.93;;;;;;;0.77;100.00;99521.94;5074253;28;20051;-81
2021/12/10 02:01:26;;;;;;;14.65;6.93;;;;;;;0.81;100.00;99533.88;5074224;28;20036;-81
2021/12/10 02:03:54;;;;;;;18.77;7.65;;;;;;;0.79;100.00;99522.78;5073061;28;20028;-80
2021/12/10 02:06:20;;;;;;;18.73;7.95;;;;;;;0.78;100.00;99515.94;5074424;28;20497;-81
2021/12/10 02:08:46;;;;;;;17.38;8.32;;;;;;;0.80;100.00;99519.34;5073265;28;20028;-80
2021/12/10 02:11:12;;;;;;;21.60;7.55;;;;;;;0.78;100.00;99510.81;5072933;28;20033;-80
2021/12/10 02:13:39;;;;;;;24.25;8.25;;;;;;;0.83;100.00;99507.38;5073161;28;20070;-80
2021/12/10 02:16:05;;;;;;;21.48;7.45;;;;;;;0.87;100.00;99506.47;5074449;28;20025;-80
2021/12/10 02:18:30;;;;;;;14.90;7.60;;;;;;;0.84;100.00;99498.78;5073346;28;20039;-80
2021/12/10 02:21:02;;;;;;;19.40;7.63;;;;;;;0.83;100.00;99502.22;5073361;28;20036;-80
2021/12/10 02:23:33;;;;;;;15.25;7.47;;;;;;;0.81;100.00;99480.00;5073865;28;20028;-80
2021/12/10 02:26:05;;;;;;;20.90;7.80;;;;;;;0.81;100.00;99478.28;5052981;28;20039;-80
2021/12/10 02:28:30;;;;;;;12.50;6.72;;;;;;;0.86;100.00;99470.59;5053641;28;20112;-80
2021/12/10 02:30:56;;;;;;;13.35;6.32;;;;;;;0.85;100.00;99459.47;5060766;28;20108;-81
2021/12/10 02:33:23;;;;;;;16.35;6.32;;;;;;;0.92;100.00;99455.16;5073104;28;20070;-80
2021/12/10 02:35:48;;;;;;;15.18;6.40;;;;;;;0.92;100.00;99447.44;5073547;28;20564;-80
2021/12/10 02:38:18;;;;;;;11.48;5.72;;;;;;;0.93;100.00;99441.44;5069547;28;20487;-80
2021/12/10 02:40:45;;;;;;;10.73;5.35;;;;;;;0.99;100.00;99440.56;5071966;28;20032;-80
2021/12/10 02:43:12;;;;;;;16.10;5.35;;;;;;;0.94;100.00;99430.31;5073809;28;20013;-80
2021/12/10 02:45:44;;;;;;;13.88;5.95;;;;;;;0.97;100.00;99432.84;5071822;28;20035;-80
2021/12/10 02:48:10;;;;;;;12.63;5.00;;;;;;;0.93;100.00;99426.91;5073015;28;20070;-80
2021/12/10 02:50:36;;;;;;;13.25;5.18;;;;;;;0.93;100.00;99411.50;5073117;28;20059;-81
2021/12/10 02:53:03;;;;;;;12.90;5.38;;;;;;;0.93;100.00;99415.78;5071320;28;20033;-81
2021/12/10 02:55:30;;;;;;;9.35;4.25;;;;;;;0.93;100.00;99410.66;5073365;28;20028;-81
2021/12/10 02:57:59;;;;;;;12.13;4.68;;;;;;;0.97;100.00;99402.06;5072681;28;20025;-81
2021/12/10 03:00:30;;;;;;;12.75;4.50;;;;;;;1.03;100.00;99412.28;5072374;28;20115;-81
2021/12/10 03:02:57;;;;;;;9.02;4.13;;;;;;;1.06;100.00;99398.59;5073119;28;20361;-81
2021/12/10 03:05:23;;;;;;;11.98;4.70;;;;;;;1.02;100.00;99378.94;5073081;28;20093;-80
2021/12/10 03:07:48;;;;;;;15.27;4.30;;;;;;;1.09;100.00;99378.88;5068158;28;20480;-80
2021/12/10 03:10:18;;;;;;;14.80;4.50;;;;;;;1.17;100.00;99387.34;5071768;28;20131;-80
2021/12/10 03:12:45;;;;;;;12.07;4.43;;;;;;;1.16;100.00;99374.53;5071043;28;20041;-80
2021/12/10 03:15:12;;;;;;;12.18;4.35;;;;;;;1.16;100.00;99377.09;5072166;28;20082;-80
2021/12/10 03:17:38;;;;;;;11.02;4.50;;;;;;;1.16;100.00;99372.81;5052440;28;20035;-80
2021/12/10 03:20:07;;;;;;;8.30;4.13;;;;;;;1.16;100.00;99357.41;5053062;28;20024;-80
2021/12/10 03:22:33;;;;;;;12.18;3.97;;;;;;;1.16;100.00;99370.25;5070597;28;20495;-80
2021/12/10 03:24:59;;;;;;;10.95;4.05;;;;;;;1.19;100.00;99351.41;5071537;28;20028;-80
2021/12/10 03:27:24;;;;;;;13.70;3.88;;;;;;;1.17;100.00;99353.97;5072627;28;20033;-81
2021/12/10 03:29:51;;;;;;;9.40;4.10;;;;;;;1.21;100.00;99353.94;5071732;28;20082;-81
2021/12/10 03:32:24;;;;;;;12.20;4.38;;;;;;;1.24;100.00;99359.91;5072157;28;20036;-81
2021/12/10 03:34:51;;;;;;;12.75;3.88;;;;;;;1.26;100.00;99344.50;5071333;28;20032;-81
2021/12/10 03:37:19;;;;;;;10.68;3.83;;;;;;;1.31;100.00;99345.31;5072595;28;20060;-80
2021/12/10 03:39:46;;;;;;;12.50;3.78;;;;;;;1.36;100.00;99328.97;5063156;28;20033;-81
2021/12/10 03:42:13;;;;;;;13.75;4.28;;;;;;;1.47;100.00;99328.91;5071530;28;20078;-80
2021/12/10 03:44:38;;;;;;;16.92;3.47;;;;;;;1.47;100.00;99318.63;5072022;28;20430;-81
2021/12/10 03:47:07;;;;;;;12.05;3.38;;;;;;;1.52;100.00;99319.41;5069475;28;20033;-80
2021/12/10 03:49:32;;;;;;;10.38;3.70;;;;;;;1.56;100.00;99320.22;5071475;28;20023;-81
2021/12/10 03:51:59;;;;;;;8.25;3.35;;;;;;;1.59;100.00;99315.88;5071716;28;20040;-81
2021/12/10 03:54:25;;;;;;;11.55;3.35;;;;;;;1.67;100.00;99317.50;5072482;28;20029;-81
2021/12/10 03:56:51;;;;;;;10.00;3.60;;;;;;;1.69;100.00;99315.78;5069912;28;20024;-81
2021/12/10 03:59:20;;;;;;;16.15;3.47;;;;;;;1.71;100.00;99314.06;5072177;28;20027;-81
2021/12/10 04:01:50;;;;;;;10.43;3.90;;;;;;;1.68;100.00;99309.81;5069853;28;20021;-81
2021/12/10 04:04:19;;;;;;;6.50;3.33;;;;;;;1.72;100.00;99308.03;5054105;28;20024;-81
2021/12/10 04:06:45;;;;;;;7.55;3.50;;;;;;;1.72;100.00;99296.03;5071283;28;20368;-81
2021/12/10 04:09:10;;;;;;;8.65;4.60;;;;;;;1.72;100.00;99290.06;5072061;28;20016;-81
2021/12/10 04:11:39;;;;;;;10.13;4.10;;;;;;;1.74;100.00;99286.63;5070784;28;20123;-81
2021/12/10 04:14:05;;;;;;;8.50;3.40;;;;;;;1.75;100.00;99277.19;5072384;28;20038;-81
2021/12/10 04:16:32;;;;;;;8.43;3.75;;;;;;;1.74;100.00;99273.75;5071449;28;20028;-81
2021/12/10 04:19:00;;;;;;;11.68;3.40;;;;;;;1.70;100.00;99259.28;5070427;28;20028;-81
2021/12/10 04:21:27;;;;;;;12.90;4.25;;;;;;;1.70;100.00;99254.13;5071596;28;20054;-81
2021/12/10 04:23:52;;;;;;;12.65;3.67;;;;;;;1.63;100.00;99250.78;5071223;28;20020;-81
2021/12/10 04:26:20;;;;;;;12.77;3.80;;;;;;;1.67;100.00;99245.59;5071133;28;20485;-81
2021/12/10 04:28:47;;;;;;;6.50;3.05;;;;;;;1.69;100.00;99238.72;5071512;28;20024;-81
2021/12/10 04:31:13;;;;;;;11.98;3.90;;;;;;;1.68;100.00;99240.44;5070937;28;20032;-81
2021/12/10 04:33:39;;;;;;;13.27;4.30;;;;;;;1.67;100.00;99219.88;5062352;28;20357;-81
2021/12/10 04:36:05;;;;;;;14.68;3.33;;;;;;;1.64;100.00;99219.09;5071901;28;20069;-81
2021/12/10 04:38:33;;;;;;;8.32;3.10;;;;;;;1.67;100.00;99222.47;5070902;28;20139;-81
2021/12/10 04:41:01;;;;;;;8.05;3.20;;;;;;;1.66;100.00;99215.63;5070961;28;20036;-81
2021/12/10 04:43:29;;;;;;;8.75;4.22;;;;;;;1.62;100.00;99214.81;5071874;28;20016;-81
2021/12/10 04:45:56;;;;;;;9.77;3.80;;;;;;;1.58;100.00;99201.19;5070242;28;20490;-81
2021/12/10 04:48:24;;;;;;;10.13;3.67;;;;;;;1.60;100.00;99199.44;5063557;28;20033;-81
2021/12/10 04:50:49;;;;;;;10.48;4.00;;;;;;;1.60;100.00;99194.31;5059585;28;20099;-81
2021/12/10 04:53:15;;;;;;;9.85;3.72;;;;;;;1.55;100.00;99170.41;5070086;28;20032;-81
2021/12/10 04:55:41;;;;;;;10.30;3.70;;;;;;;1.64;100.00;99179.69;5071168;28;20111;-81
2021/12/10 04:58:08;;;;;;;10.13;3.53;;;;;;;1.64;100.00;99175.41;5070969;28;20024;-81
2021/12/10 05:00:40;;;;;;;9.95;3.20;;;;;;;1.68;100.00;99172.81;5070861;28;20028;-81
2021/12/10 05:03:07;;;;;;;10.27;3.08;;;;;;;1.70;100.00;99163.34;5071467;28;20498;-82
2021/12/10 05:05:33;;;;;;;11.27;3.28;;;;;;;1.70;100.00;99158.19;5071619;28;20024;-81
2021/12/10 05:07:58;;;;;;;12.15;2.80;;;;;;;1.72;100.00;99159.03;5069630;28;20035;-81
2021/12/10 05:10:24;;;;;;;10.27;2.53;;;;;;;1.71;100.00;99150.47;5073252;28;20086;-81
2021/12/10 05:12:49;;;;;;;8.55;2.95;;;;;;;1.73;100.00;99147.88;5074659;28;20146;-81
2021/12/10 05:15:22;;;;;;;10.07;2.92;;;;;;;1.69;100.00;99149.66;5074840;28;20029;-81
2021/12/10 05:17:50;;;;;;;9.95;3.03;;;;;;;1.68;100.00;99145.38;5074649;28;20032;-81
2021/12/10 05:20:19;;;;;;;8.30;3.05;;;;;;;1.65;100.00;99135.16;5074419;28;20029;-81
2021/12/10 05:22:47;;;;;;;5.00;2.42;;;;;;;1.69;100.00;99138.53;5070933;28;20058;-81
2021/12/10 05:25:14;;;;;;;14.43;3.50;;;;;;;1.69;100.00;99136.81;5075101;28;20032;-81
2021/12/10 05:27:39;;;;;;;9.32;3.40;;;;;;;1.68;100.00;99145.38;5073430;28;20028;-81
2021/12/10 05:30:08;;;;;;;9.57;3.60;;;;;;;1.69;100.00;99129.09;5075107;28;20074;-81
2021/12/10 05:32:34;;;;;;;12.77;4.47;;;;;;;1.69;100.00;99133.38;5074356;28;20031;-81
2021/12/10 05:35:00;;;;;;;8.93;3.80;;;;;;;1.66;100.00;99130.88;5074000;28;20020;-81
2021/12/10 05:37:25;;;;;;;7.88;3.78;;;;;;;1.63;100.00;99135.19;5067009;28;20384;-81
2021/12/10 05:39:50;;;;;;;12.20;3.88;;;;;;;1.70;100.00;99122.22;5074241;28;20025;-81
2021/12/10 05:42:16;;;;;;;11.93;4.72;;;;;;;1.71;100.00;99117.09;5073552;28;20465;-81
2021/12/10 05:44:41;;;;;;;19.27;4.68;;;;;;;1.76;100.00;99117.00;5074509;28;20120;-81
2021/12/10 05:47:07;;;;;;;14.63;4.38;;;;;;;1.77;100.00;99111.00;5065163;28;20036;-81
2021/12/10 05:49:33;;;;;;;12.63;3.92;;;;;;;1.78;100.00;99110.97;5073991;28;20480;-81
2021/12/10 05:51:58;;;;;;;12.73;4.85;;;;;;;1.76;100.00;99101.59;5074223;28;20025;-81
2021/12/10 05:54:23;;;;;;;14.93;4.32;;;;;;;1.81;100.00;99107.50;5073321;28;20036;-81
2021/12/10 05:56:49;;;;;;;10.52;3.90;;;;;;;1.80;100.00;99098.13;5072739;28;20509;-81
2021/12/10 05:59:14;;;;;;;10.85;3.97;;;;;;;1.88;100.00;99114.25;5074553;28;20119;-81
2021/12/10 06:01:39;;;;;;;9.77;3.97;;;;;;;1.87;100.00;99113.41;5073575;28;20036;-81
2021/12/10 06:04:05;;;;;;;9.80;4.30;;;;;;;1.85;100.00;99106.59;5073383;28;20063;-81
2021/12/10 06:06:32;;;;;;;10.18;4.03;;;;;;;1.90;100.00;99112.53;5073454;28;20021;-81
2021/12/10 06:09:04;;;;;;;7.35;3.30;;;;;;;1.92;100.00;99105.63;5073291;28;20094;-81
2021/12/10 06:11:29;;;;;;;9.43;3.97;;;;;;;1.87;100.00;99105.69;5073540;28;20025;-81
2021/12/10 06:13:56;;;;;;;13.13;3.60;;;;;;;1.92;100.00;99097.06;5074064;28;20089;-81
2021/12/10 06:16:21;;;;;;;9.35;3.10;;;;;;;1.90;99.90;99097.09;5074132;28;20096;-81
2021/12/10 06:18:47;;;;;;;8.07;3.40;;;;;;;1.92;100.00;99105.63;5072874;28;20448;-81
2021/12/10 06:21:13;;;;;;;10.73;3.40;;;;;;;1.91;99.91;99101.34;5074034;28;20059;-81
2021/12/10 06:23:38;;;;;;;13.85;3.55;;;;;;;1.91;100.00;99090.22;5069308;28;20111;-81
2021/12/10 06:26:04;;;;;;;13.55;3.38;;;;;;;1.88;100.00;99091.97;5073426;28;20052;-81
2021/12/10 06:28:31;;;;;;;7.65;3.33;;;;;;;1.88;99.63;99091.13;5072963;28;20044;-80
2021/12/10 06:30:57;;;;;;;11.75;4.45;;;;;;;1.94;100.00;99095.31;5072629;28;20530;-81
2021/12/10 06:33:27;;;;;;;10.68;3.40;;;;;;;1.95;99.81;99094.44;5074039;28;20108;-81
2021/12/10 06:35:55;;;;;;;9.45;2.90;;;;;;;1.95;99.71;99091.88;5072956;28;20483;-81
2021/12/10 06:38:22;;;;;;;18.83;3.97;;;;;;;1.95;99.65;99090.16;5072903;28;20555;-81
2021/12/10 06:40:49;;;;;;;8.93;3.47;;;;;;;1.93;100.00;99073.91;5073379;28;20066;-81
2021/12/10 06:43:15;;;;;;;10.32;3.60;;;;;;;1.96;99.51;99085.84;5072821;28;20029;-81
2021/12/10 06:45:43;;;;;;;10.95;3.78;;;;;;;1.92;100.00;99081.63;5072024;28;20477;-81
2021/12/10 06:48:10;;;;;;;6.28;3.53;;;;;;;1.96;99.60;99083.28;5073213;28;20028;-81
2021/12/10 06:50:46;;;;;;;9.80;3.53;;;;;;;1.95;99.00;99082.44;5073107;28;20047;-82
2021/12/10 06:53:12;;;;;;;9.20;3.75;;;;;;;1.97;99.35;99083.28;5072796;28;20021;-81
2021/12/10 06:55:38;;;;;;;7.25;3.33;;;;;;;2.02;99.64;99089.16;5067887;28;20036;-81
2021/12/10 06:58:05;;;;;;;6.10;3.40;;;;;;;2.04;99.57;99096.88;5073065;28;20036;-81
2021/12/10 07:00:42;;;;;;;14.43;3.20;;;;;;;2.03;98.77;99090.03;5071951;28;20078;-81
2021/12/10 07:03:10;;;;;;;9.15;3.72;;;;;;;1.94;99.40;99079.91;5073262;28;20032;-81
2021/12/10 07:05:36;;;;;;;9.10;3.50;;;;;;;2.03;99.39;99105.47;5073149;28;20044;-81
2021/12/10 07:08:01;;;;;;;11.50;4.18;;;;;;;2.02;98.79;99102.00;5071613;28;20028;-81
2021/12/10 07:10:27;;;;;;;9.70;3.40;;;;;;;2.01;99.77;99095.19;5072117;28;20035;-81
2021/12/10 07:12:52;;;;;;;9.50;3.65;;;;;;;1.93;99.82;99083.31;5071622;28;20082;-81
2021/12/10 07:15:18;;;;;;;13.18;4.18;;;;;;;1.99;100.00;99091.78;5073118;28;20104;-81
2021/12/10 07:17:47;;;;;;;9.73;4.65;;;;;;;1.98;99.29;99095.22;5071786;28;20476;-81
2021/12/10 07:20:14;;;;;;;10.63;3.85;;;;;;;1.93;99.29;99084.19;5072315;28;20111;-81
2021/12/10 07:22:40;;;;;;;10.55;3.90;;;;;;;2.03;99.39;99102.88;5072424;28;20079;-81
2021/12/10 07:25:07;;;;;;;11.68;3.95;;;;;;;2.02;99.43;99093.47;5071546;28;20032;-81
2021/12/10 07:27:33;;;;;;;16.55;4.68;;;;;;;2.00;99.07;99088.34;5070975;28;20119;-81
2021/12/10 07:29:58;;;;;;;8.90;3.90;;;;;;;1.99;99.53;99085.78;5072321;28;20124;-81
2021/12/10 07:32:23;;;;;;;12.77;4.40;;;;;;;2.00;99.57;99088.34;5071050;28;20846;-81
2021/12/10 07:34:49;;;;;;;8.40;3.83;;;;;;;2.00;99.95;99090.94;5071604;28;20029;-81
2021/12/10 07:37:15;;;;;;;11.30;4.38;;;;;;;2.00;100.00;99090.94;5071653;28;20031;-81
2021/12/10 07:39:40;;;;;;;9.73;4.53;;;;;;;1.97;100.00;99093.56;5071730;28;20029;-81
2021/12/10 07:42:07;;;;;;;9.18;4.22;;;;;;;1.97;100.00;99088.41;5070805;28;20035;-81
2021/12/10 07:44:34;;;;;;;10.52;3.75;;;;;;;1.95;100.00;99092.72;5072270;28;20025;-81
2021/12/10 07:47:12;;;;;;;9.38;4.07;;;;;;;1.89;100.00;99077.38;5071449;28;20071;-81
2021/12/10 07:49:38;;;;;;;11.90;3.47;;;;;;;1.87;100.00;99090.28;5071542;28;20024;-81
2021/12/10 07:52:08;;;;;;;9.40;3.63;;;;;;;1.95;100.00;99092.72;5072594;28;20055;-80
2021/12/10 07:54:34;;;;;;;10.55;4.03;;;;;;;1.93;100.00;99083.31;5071894;28;20024;-81
2021/12/10 07:56:59;;;;;;;16.02;4.03;;;;;;;1.90;100.00;99081.69;5069645;28;20032;-81
2021/12/10 07:59:24;;;;;;;7.10;3.22;;;;;;;1.92;100.00;99087.63;5072189;28;20476;-81
2021/12/10 08:01:51;;;;;;;10.90;3.78;;;;;;;1.96;100.00;99089.28;5071114;28;20028;-81
2021/12/10 08:04:16;;;;;;;14.18;3.92;;;;;;;1.97;100.00;99106.41;5071564;28;20078;-81
2021/12/10 08:06:42;;;;;;;11.57;4.10;;;;;;;1.97;100.00;99105.56;5070365;28;20029;-81
2021/12/10 08:09:08;;;;;;;8.00;3.40;;;;;;;1.97;100.00;99098.69;5071363;28;20623;-81
2021/12/10 08:11:35;;;;;;;10.75;3.50;;;;;;;1.98;100.00;99100.38;5071617;28;20029;-81
2021/12/10 08:14:01;;;;;;;10.70;3.28;;;;;;;2.00;100.00;99090.94;5069701;28;20028;-81
2021/12/10 08:16:26;;;;;;;10.25;2.85;;;;;;;2.04;100.00;99100.28;5071481;28;20445;-81
2021/12/10 08:18:52;;;;;;;13.13;3.60;;;;;;;2.06;100.00;99101.13;5070965;28;20028;-81
2021/12/10 08:21:18;;;;;;;13.02;3.55;;;;;;;2.08;100.00;99099.34;5071170;28;20056;-81
2021/12/10 08:23:44;;;;;;;12.85;3.65;;;;;;;2.12;100.00;99100.13;5070467;28;20067;-81
2021/12/10 08:26:12;;;;;;;9.90;3.65;;;;;;;2.10;100.00;99091.63;5072000;28;20499;-81
2021/12/10 08:28:38;;;;;;;10.48;3.38;;;;;;;2.18;100.00;99101.75;5070999;28;20064;-81
2021/12/10 08:31:03;;;;;;;10.68;3.70;;;;;;;2.20;100.00;99106.00;5071378;28;20052;-81
2021/12/10 08:33:29;;;;;;;12.32;3.40;;;;;;;2.21;100.00;99094.84;5071821;28;20032;-81
2021/12/10 08:35:58;;;;;;;7.97;4.18;;;;;;;2.28;100.00;99099.00;5066151;28;20017;-81
2021/12/10 08:38:25;;;;;;;10.30;3.22;;;;;;;2.30;99.77;99099.00;5070665;28;20032;-80
2021/12/10 08:40:58;;;;;;;9.30;2.97;;;;;;;2.33;100.00;99106.66;5071237;28;20384;-80
2021/12/10 08:43:26;;;;;;;12.48;3.60;;;;;;;2.35;99.77;99104.88;5071593;28;20516;-80
2021/12/10 08:45:54;;;;;;;7.95;3.30;;;;;;;2.33;99.92;99115.22;5068216;28;20385;-80
2021/12/10 08:48:26;;;;;;;11.43;3.47;;;;;;;2.36;100.00;99098.88;5070987;28;20464;-80
2021/12/10 08:50:54;;;;;;;8.57;3.10;;;;;;;2.38;99.95;99112.53;5071719;28;20038;-80
2021/12/10 08:53:19;;;;;;;12.23;3.58;;;;;;;2.39;99.27;99114.25;5070194;28;20047;-80
2021/12/10 08:55:49;;;;;;;11.63;3.13;;;;;;;2.39;99.20;99098.84;5075166;28;20024;-80
2021/12/10 08:58:14;;;;;;;10.10;3.42;;;;;;;2.44;98.22;99093.59;5074712;28;20499;-80
2021/12/10 09:00:42;;;;;;;10.10;3.30;;;;;;;2.50;98.32;99104.63;5068420;28;20115;-80
2021/12/10 09:03:08;;;;;;;11.38;3.90;;;;;;;2.57;98.12;99101.03;5067621;28;20474;-80
2021/12/10 09:05:34;;;;;;;8.65;3.28;;;;;;;2.61;97.85;99101.00;5073308;28;20031;-80
2021/12/10 09:07:59;;;;;;;15.30;3.58;;;;;;;2.64;98.14;99093.22;5075253;28;20036;-80
2021/12/10 09:10:33;;;;;;;10.73;3.85;;;;;;;2.67;97.28;99104.28;5075249;28;20070;-80
2021/12/10 09:12:59;;;;;;;11.75;3.63;;;;;;;2.72;97.16;99109.38;5074171;28;20052;-80
2021/12/10 09:15:26;;;;;;;9.23;3.70;;;;;;;2.76;96.77;99108.41;5074847;28;20029;-80
2021/12/10 09:17:57;;;;;;;10.57;3.88;;;;;;;2.79;96.44;99113.50;5073386;28;20086;-80
2021/12/10 09:20:28;;;;;;;10.45;3.95;;;;;;;2.86;96.40;99115.09;5070883;28;20032;-80
2021/12/10 09:22:54;;;;;;;12.50;3.80;;;;;;;2.89;96.12;99115.03;5072726;28;20024;-80
2021/12/10 09:25:20;;;;;;;9.30;3.67;;;;;;;2.90;95.62;99111.56;5072135;28;20431;-80
2021/12/10 09:27:46;;;;;;;8.50;3.65;;;;;;;2.97;94.48;99115.69;5056906;28;20071;-80
2021/12/10 09:30:15;;;;;;;9.00;3.83;;;;;;;2.97;94.56;99118.28;5070709;28;20112;-80
2021/12/10 09:32:41;;;;;;;9.95;4.10;;;;;;;2.99;94.60;99116.53;5073502;28;20163;-80
2021/12/10 09:35:09;;;;;;;12.65;4.25;;;;;;;3.02;94.49;99108.75;5073685;28;20524;-80
2021/12/10 09:37:36;;;;;;;12.18;4.47;;;;;;;3.07;94.76;99113.78;5074045;28;20036;-80
2021/12/10 09:40:12;;;;;;;7.60;4.13;;;;;;;3.04;93.69;99101.84;5073696;28;20086;-81
2021/12/10 09:42:38;;;;;;;11.73;4.32;;;;;;;3.15;94.63;99123.94;5073638;28;20078;-81
2021/12/10 09:45:06;;;;;;;8.55;3.67;;;;;;;3.18;93.55;99124.72;5058396;28;20033;-81
2021/12/10 09:47:32;;;;;;;11.90;4.22;;;;;;;3.17;94.46;99109.28;5073244;28;20029;-81
2021/12/10 09:49:58;;;;;;;11.30;3.60;;;;;;;3.20;93.38;99116.97;5060663;28;20033;-81
2021/12/10 09:52:26;;;;;;;10.98;3.85;;;;;;;3.23;93.90;99114.31;5062503;28;20029;-80
2021/12/10 09:54:52;;;;;;;9.68;4.65;;;;;;;3.26;94.33;99115.09;5053213;28;20147;-80
2021/12/10 09:57:24;;;;;;;11.45;4.47;;;;;;;3.28;92.93;99122.81;5063855;28;20135;-80
2021/12/10 09:59:52;;;;;;;10.53;4.17;;;;;;;3.29;92.15;99117.63;5070047;28;20115;-80
2021/12/10 10:02:20;;;;;;;11.80;4.00;;;;;;;3.31;92.93;99120.19;5072955;28;20377;-80
2021/12/10 10:04:49;;;;;;;9.55;4.00;;;;;;;3.32;93.14;99116.72;5058852;28;20444;-80
2021/12/10 10:07:19;;;;;;;10.07;3.97;;;;;;;3.38;92.25;99111.44;5067138;28;20078;-80
2021/12/10 10:09:48;;;;;;;9.38;4.28;;;;;;;3.39;91.81;99120.00;5058787;28;20054;-79
2021/12/10 10:12:22;;;;;;;11.43;3.80;;;;;;;3.44;92.54;99124.19;5070349;28;20067;-80
2021/12/10 10:14:48;;;;;;;;;;;;;;;3.52;94.82;99127.41;5054050;28;20021;-81
2021/12/10 10:17:15;;;;;;;9.50;4.35;;;;;;;3.55;92.28;99135.97;5060299;28;20410;-81
2021/12/10 10:19:41;;;;;;;11.10;3.97;;;;;;;3.54;91.89;99123.97;5071376;28;20123;-81
2021/12/10 10:22:11;;;;;;;8.18;3.60;;;;;;;3.55;91.14;99125.66;5074229;28;20170;-80
2021/12/10 10:24:37;;;;;;;6.75;3.30;;;;;;;3.56;90.85;99122.19;5072712;28;20067;-80
2021/12/10 10:27:09;;;;;;;9.50;3.78;;;;;;;3.58;90.56;99120.44;5071787;28;20028;-80
2021/12/10 10:29:38;;;;;;;8.80;3.78;;;;;;;3.63;90.62;99131.47;5073844;28;20024;-80
2021/12/10 10:32:10;;;;;;;8.13;3.75;;;;;;;3.67;90.39;99128.81;5073084;28;20162;-80
2021/12/10 10:34:40;;;;;;;7.40;4.00;;;;;;;3.72;90.39;99132.13;5073052;28;20044;-80
2021/12/10 10:37:06;;;;;;;13.48;4.03;;;;;;;3.74;90.20;99124.38;5073374;28;20478;-80
2021/12/10 10:39:34;;;;;;;8.00;3.70;;;;;;;3.74;90.29;99121.78;5071332;28;20035;-80
2021/12/10 10:42:00;;;;;;;9.82;4.47;;;;;;;3.80;89.53;99131.13;5067115;28;20028;-80
2021/12/10 10:44:26;;;;;;;10.80;3.90;;;;;;;3.81;90.38;99123.34;5072797;28;20064;-80
2021/12/10 10:46:55;;;;;;;11.07;3.65;;;;;;;3.85;89.38;99127.53;5072316;28;20464;-80
2021/12/10 10:49:47;;;;;;;8.88;4.20;;;;;;;3.88;89.36;99130.03;5073305;28;20025;-79
2021/12/10 10:52:12;;;;;;;9.25;3.83;;;;;;;3.88;89.06;99129.19;5052651;28;20071;-81
2021/12/10 10:54:37;;;;;;;11.98;4.00;;;;;;;3.84;88.91;99131.00;5067048;28;20063;-79
2021/12/10 10:57:12;;;;;;;9.43;3.97;;;;;;;3.84;89.02;99125.00;5071180;28;20032;-78
2021/12/10 10:59:37;;;;;;;8.82;3.42;;;;;;;3.81;89.89;99138.81;5071452;28;20107;-81
2021/12/10 11:02:08;;;;;;;10.32;4.45;;;;;;;3.81;90.85;99138.81;5058967;28;20033;-81
2021/12/10 11:04:43;;;;;;;10.30;4.20;;;;;;;3.80;90.46;99131.97;5054418;28;20021;-82
2021/12/10 11:07:14;;;;;;;9.98;3.88;;;;;;;3.75;90.45;99129.47;5071614;28;20469;-81
2021/12/10 11:09:52;;;;;;;10.18;4.40;;;;;;;3.82;90.58;99140.50;5072902;28;20085;-82
2021/12/10 11:12:53;;;;;;;8.50;3.38;;;;;;;3.86;91.09;99139.56;5071683;28;20045;-81
2021/12/10 11:15:19;;;;;;;11.15;3.60;;;;;;;3.84;89.84;99145.63;5030802;28;20029;-81
2021/12/10 11:17:48;;;;;;;9.18;3.70;;;;;;;3.80;89.48;99133.69;5063649;28;20036;-82
2021/12/10 11:20:25;;;;;;;8.35;4.18;;;;;;;3.83;90.48;99143.94;5072435;28;20070;-82
2021/12/10 11:23:00;;;;;;;9.55;3.85;;;;;;;3.84;90.88;99148.22;5072400;28;20033;-82
2021/12/10 11:25:31;;;;;;;9.20;4.10;;;;;;;3.81;90.56;99143.97;5064953;28;20035;-81
2021/12/10 11:28:25;;;;;;;11.75;4.05;;;;;;;3.81;90.72;99153.44;5071480;28;20020;-81
2021/12/10 11:31:02;;;;;;;9.77;3.53;;;;;;;3.76;89.83;99150.97;5061598;28;20047;-81
2021/12/10 11:33:28;;;;;;;9.80;3.60;;;;;;;3.67;89.79;99146.00;5066452;28;20480;-81
2021/12/10 11:35:59;;;;;;;7.55;3.30;;;;;;;3.62;90.97;99151.25;5071765;28;20063;-80
2021/12/10 11:38:32;;;;;;;8.40;3.42;;;;;;;3.61;90.66;99165.03;5058705;28;20063;-81
2021/12/10 11:41:09;;;;;;;7.85;3.30;;;;;;;3.61;90.24;99156.47;5067575;28;20856;-81